Time;durP1;ratioP1;P1;durP2;ratioP2;P2;SDS_P1;SDS_P2;PMS_P1;PMS_P2;Temp;Humidity;BMP_temperature;BMP_pressure;BME280_temperature;BME280_humidity;BME280_pressure;Samples;Min_cycle;Max_cycle;Signal;HPM_P1;HPM_P2
2023/12/30 00:00:16;;;;;;;;;;;;;;;5.00;66.28;99979.81;5093390;28;19919;-81
2023/12/30 00:02:41;;;;;;;;;;;;;;;4.97;66.43;99972.22;5094975;28;19912;-81
2023/12/30 00:05:07;;;;;;;;;;;;;;;4.44;66.78;99888.69;5093970;28;20060;-81
2023/12/30 00:07:32;;;;;;;;;;;;;;;4.93;66.21;99970.81;5094038;28;19920;-81
2023/12/30 00:09:57;;;;;;;;;;;;;;;4.95;66.10;99968.91;5094123;28;19923;-81
2023/12/30 00:12:23;;;;;;;;;;;;;;;4.96;66.26;99974.97;5097183;28;19916;-81
2023/12/30 00:14:48;;;;;;;;;;;;;;;4.94;66.38;99976.88;5095235;28;19909;-81
2023/12/30 00:17:13;;;;;;;;;;;;;;;4.90;66.31;99971.09;5096015;28;19916;-81
2023/12/30 00:19:42;;;;;;;;;;;;;;;4.92;66.44;99973.56;5093613;28;20416;-81
2023/12/30 00:22:08;;;;;;;;;;;;;;;4.93;66.17;99975.22;5095393;28;19944;-81
2023/12/30 00:24:35;;;;;;;;;;;;;;;4.93;66.23;99975.22;5095727;28;20289;-81
2023/12/30 00:27:00;;;;;;;;;;;;;;;4.92;66.18;99987.47;5097530;28;19952;-81
2023/12/30 00:29:26;;;;;;;;;;;;;;;4.90;66.03;99984.16;5093989;28;19919;-81
2023/12/30 00:31:51;;;;;;;;;;;;;;;4.84;65.81;99979.47;5094948;28;19919;-81
2023/12/30 00:34:17;;;;;;;;;;;;;;;4.81;66.26;99990.19;5096474;28;19952;-81
2023/12/30 00:36:45;;;;;;;;;;;;;;;4.78;66.14;99983.44;5095022;28;19913;-81
2023/12/30 00:39:10;;;;;;;;;;;;;;;4.73;65.91;99979.53;5096067;28;19916;-82
2023/12/30 00:41:36;;;;;;;;;;;;;;;4.69;65.89;99978.16;5098443;28;19951;-81
2023/12/30 00:44:01;;;;;;;;;;;;;;;4.67;66.43;99967.81;5095938;28;20106;-81
2023/12/30 00:46:27;;;;;;;;;;;;;;;4.70;66.24;99980.63;5093814;28;20388;-80
2023/12/30 00:48:52;;;;;;;;;;;;;;;4.70;65.89;99977.19;5095483;28;19912;-81
2023/12/30 00:51:17;;;;;;;;;;;;;;;4.69;66.13;99980.75;5095817;28;19916;-81
2023/12/30 00:53:42;;;;;;;;;;;;;;;4.57;65.51;99981.81;5097091;28;19954;-81
2023/12/30 00:56:08;;;;;;;;;;;;;;;4.47;66.23;99973.91;5099802;28;19912;-80
2023/12/30 00:58:33;;;;;;;;;;;;;;;4.46;65.96;99978.31;5097138;28;20416;-81
2023/12/30 01:00:58;;;;;;;;;;;;;;;4.42;66.41;99982.09;5096371;28;20377;-81
2023/12/30 01:03:24;;;;;;;;;;;;;;;4.39;65.98;99982.34;5094966;28;19916;-81
2023/12/30 01:05:49;;;;;;;;;;;;;;;4.39;66.11;99981.53;5096787;28;19920;-81
2023/12/30 01:08:14;;;;;;;;;;;;;;;4.39;66.01;99982.34;5097437;28;19912;-81
2023/12/30 01:10:40;;;;;;;;;;;;;;;4.41;66.02;99987.44;5098104;28;19979;-81
2023/12/30 01:13:05;;;;;;;;;;;;;;;4.42;66.42;99984.72;5097320;28;19919;-81
2023/12/30 01:15:31;;;;;;;;;;;;;;;4.37;65.94;99984.25;5097446;28;19912;-81
2023/12/30 01:17:56;;;;;;;;;;;;;;;4.35;65.79;99991.41;5097887;28;19912;-81
2023/12/30 01:20:21;;;;;;;;;;;;;;;4.28;65.91;99982.41;5098856;28;19961;-81
2023/12/30 01:22:47;;;;;;;;;;;;;;;4.15;66.04;99987.00;5100609;28;19940;-81
2023/12/30 01:25:12;;;;;;;;;;;;;;;4.10;66.54;99987.38;5103906;28;20375;-81
2023/12/30 01:27:37;;;;;;;;;;;;;;;4.04;66.05;99981.81;5108978;28;20011;-81
2023/12/30 01:30:02;;;;;;;;;;;;;;;4.04;66.26;99982.66;5109646;28;19923;-81
2023/12/30 01:32:28;;;;;;;;;;;;;;;4.04;66.38;99974.00;5111803;28;19918;-81
2023/12/30 01:34:53;;;;;;;;;;;;;;;4.02;66.27;99976.72;5101209;28;19923;-81
2023/12/30 01:37:18;;;;;;;;;;;;;;;4.04;66.53;99972.22;5095469;28;19919;-81
2023/12/30 01:39:44;;;;;;;;;;;;;;;4.07;66.63;99968.50;5096057;28;19916;-81
2023/12/30 01:42:09;;;;;;;;;;;;;;;4.09;66.33;99974.44;5097285;28;20370;-81
2023/12/30 01:44:35;;;;;;;;;;;;;;;4.07;66.11;99966.72;5095136;28;19912;-81
2023/12/30 01:47:01;;;;;;;;;;;;;;;4.06;66.29;99954.63;5095560;28;20358;-81
2023/12/30 01:49:26;;;;;;;;;;;;;;;4.06;66.05;99948.56;5094615;28;20373;-80
2023/12/30 01:51:52;;;;;;;;;;;;;;;4.08;66.24;99957.94;5096276;28;19913;-81
2023/12/30 01:54:19;;;;;;;;;;;;;;;4.07;65.95;99937.97;5098014;28;20392;-80
2023/12/30 01:56:44;;;;;;;;;;;;;;;4.05;66.11;99942.50;5099109;28;20003;-81
2023/12/30 01:59:11;;;;;;;;;;;;;;;4.08;65.95;99941.44;5099211;28;19950;-81
2023/12/30 02:01:36;;;;;;;;;;;;;;;4.02;66.02;99936.72;5098103;28;20399;-81
2023/12/30 02:04:02;;;;;;;;;;;;;;;3.97;66.16;99936.25;5098223;28;19995;-81
2023/12/30 02:06:27;;;;;;;;;;;;;;;4.01;66.28;99940.28;5098830;28;19924;-81
2023/12/30 02:08:53;;;;;;;;;;;;;;;3.99;66.25;99934.34;5097330;28;19912;-81
2023/12/30 02:11:18;;;;;;;;;;;;;;;4.01;66.08;99938.50;5097887;28;19923;-81
2023/12/30 02:13:47;;;;;;;;;;;;;;;4.04;66.21;99935.63;5101690;28;19916;-81
2023/12/30 02:16:12;;;;;;;;;;;;;;;4.04;66.04;99934.78;5097509;28;20332;-81
2023/12/30 02:18:38;;;;;;;;;;;;;;;4.04;66.07;99932.19;5097380;28;19918;-81
2023/12/30 02:21:03;;;;;;;;;;;;;;;4.03;65.94;99923.50;5099797;28;20007;-81
2023/12/30 02:23:28;;;;;;;;;;;;;;;4.07;65.91;99935.38;5098395;28;19918;-81
2023/12/30 02:25:54;;;;;;;;;;;;;;;3.96;65.89;99909.31;5099084;28;19938;-80
2023/12/30 02:28:19;;;;;;;;;;;;;;;4.10;66.02;99934.28;5098917;28;20388;-81
2023/12/30 02:30:44;;;;;;;;;;;;;;;4.06;66.20;99931.09;5098920;28;19916;-81
2023/12/30 02:33:10;;;;;;;;;;;;;;;4.08;65.97;99933.59;5099292;28;20317;-81
2023/12/30 02:35:35;;;;;;;;;;;;;;;4.09;65.71;99937.84;5097919;28;19912;-81
2023/12/30 02:38:00;;;;;;;;;;;;;;;4.10;65.81;99932.50;5099206;28;19912;-81
2023/12/30 02:40:26;;;;;;;;;;;;;;;4.07;65.93;99935.38;5099453;28;19912;-81
2023/12/30 02:42:51;;;;;;;;;;;;;;;4.09;66.29;99927.41;5099230;28;19965;-82
2023/12/30 02:45:16;;;;;;;;;;;;;;;4.09;65.79;99930.03;5097594;28;19912;-82
2023/12/30 02:47:42;;;;;;;;;;;;;;;4.07;65.73;99924.09;5097143;28;19912;-81
2023/12/30 02:50:07;;;;;;;;;;;;;;;4.04;66.07;99922.56;5100112;28;19916;-81
2023/12/30 02:52:33;;;;;;;;;;;;;;;4.03;66.04;99920.91;5099480;28;19912;-81
2023/12/30 02:55:00;;;;;;;;;;;;;;;4.04;66.05;99919.13;5100681;28;19912;-81
2023/12/30 02:57:26;;;;;;;;;;;;;;;4.02;65.57;99919.25;5100399;28;20003;-81
2023/12/30 02:59:51;;;;;;;;;;;;;;;4.01;65.78;99916.75;5100838;28;19940;-81
2023/12/30 03:02:16;;;;;;;;;;;;;;;3.99;65.96;99911.66;5100289;28;19912;-81
2023/12/30 03:04:42;;;;;;;;;;;;;;;3.99;65.82;99919.50;5100505;28;19916;-81
2023/12/30 03:07:07;;;;;;;;;;;;;;;4.00;65.91;99915.09;5099438;28;19924;-81
2023/12/30 03:09:33;;;;;;;;;;;;;;;3.99;65.77;99914.28;5097764;28;19912;-81
2023/12/30 03:11:58;;;;;;;;;;;;;;;4.04;65.95;99921.72;5098995;28;19912;-81
2023/12/30 03:14:23;;;;;;;;;;;;;;;4.03;65.78;99918.28;5098483;28;20417;-81
2023/12/30 03:16:48;;;;;;;;;;;;;;;4.03;65.69;99920.91;5097202;28;19912;-80
2023/12/30 03:19:14;;;;;;;;;;;;;;;4.06;65.91;99920.66;5098226;28;19916;-81
2023/12/30 03:21:39;;;;;;;;;;;;;;;4.06;65.59;99915.44;5098524;28;19912;-80
2023/12/30 03:24:04;;;;;;;;;;;;;;;4.06;65.59;99906.75;5098273;28;19912;-81
2023/12/30 03:26:30;;;;;;;;;;;;;;;4.06;65.69;99917.22;5101459;28;19967;-81
2023/12/30 03:28:55;;;;;;;;;;;;;;;3.98;65.76;99915.22;5097825;28;19911;-81
2023/12/30 03:31:24;;;;;;;;;;;;;;;3.95;65.54;99927.72;5097444;28;19969;-81
2023/12/30 03:33:50;;;;;;;;;;;;;;;3.93;65.63;99927.84;5098336;28;19967;-81
2023/12/30 03:36:15;;;;;;;;;;;;;;;3.87;65.55;99928.34;5096917;28;19919;-81
2023/12/30 03:38:41;;;;;;;;;;;;;;;3.83;65.47;99927.78;5097105;28;19912;-81
2023/12/30 03:41:06;;;;;;;;;;;;;;;3.71;65.52;99933.13;5098818;28;19916;-80
2023/12/30 03:43:31;;;;;;;;;;;;;;;3.63;65.59;99927.72;5097215;28;19912;-81
2023/12/30 03:45:56;;;;;;;;;;;;;;;3.53;65.79;99937.25;5097161;28;19919;-81
2023/12/30 03:48:22;;;;;;;;;;;;;;;3.48;65.60;99929.78;5097290;28;19912;-81
2023/12/30 03:50:47;;;;;;;;;;;;;;;3.44;65.85;99937.03;5096869;28;19916;-81
2023/12/30 03:53:13;;;;;;;;;;;;;;;3.46;65.88;99936.91;5095439;28;19955;-81
2023/12/30 03:55:38;;;;;;;;;;;;;;;3.46;65.89;99945.56;5096871;28;19919;-80
2023/12/30 03:58:03;;;;;;;;;;;;;;;3.40;66.01;99950.44;5096687;28;19923;-80
2023/12/30 04:00:29;;;;;;;;;;;;;;;3.32;65.86;99952.84;5097712;28;19912;-80
2023/12/30 04:02:54;;;;;;;;;;;;;;;3.28;65.71;99951.41;5096391;28;19919;-81
2023/12/30 04:05:19;;;;;;;;;;;;;;;3.30;65.96;99959.97;5096426;28;20328;-81
2023/12/30 04:07:45;;;;;;;;;;;;;;;3.22;65.86;99957.94;5094413;28;20003;-81
2023/12/30 04:10:12;;;;;;;;;;;;;;;3.26;66.46;99964.59;5095218;28;19917;-81
2023/12/30 04:12:38;;;;;;;;;;;;;;;3.35;66.20;99963.03;5097994;28;20000;-81
2023/12/30 04:15:04;;;;;;;;;;;;;;;3.42;66.49;99961.59;5099221;28;19919;-81
2023/12/30 04:17:29;;;;;;;;;;;;;;;3.47;65.88;99965.50;5095098;28;19912;-81
2023/12/30 04:19:55;;;;;;;;;;;;;;;3.53;65.85;99966.78;5095901;28;19912;-80
2023/12/30 04:22:20;;;;;;;;;;;;;;;3.57;66.00;99978.63;5096302;28;19966;-80
2023/12/30 04:24:45;;;;;;;;;;;;;;;3.59;65.97;99975.91;5095397;28;19912;-81
2023/12/30 04:27:10;;;;;;;;;;;;;;;3.56;65.79;99974.38;5096597;28;19912;-81
2023/12/30 04:29:36;;;;;;;;;;;;;;;3.51;65.67;99984.34;5098744;28;19912;-81
2023/12/30 04:32:01;;;;;;;;;;;;;;;3.49;65.60;99988.88;5094331;28;19916;-81
2023/12/30 04:34:26;;;;;;;;;;;;;;;3.45;65.89;99992.66;5096290;28;19954;-81
2023/12/30 04:36:51;;;;;;;;;;;;;;;3.47;65.51;99986.38;5095765;28;19919;-81
2023/12/30 04:39:17;;;;;;;;;;;;;;;3.48;65.34;99995.88;5096215;28;19944;-80
2023/12/30 04:41:42;;;;;;;;;;;;;;;3.47;65.54;99993.38;5096169;28;19919;-81
2023/12/30 04:44:07;;;;;;;;;;;;;;;3.43;65.37;99991.97;5098278;28;20377;-81
2023/12/30 04:46:32;;;;;;;;;;;;;;;3.41;65.14;99992.09;5096516;28;19912;-81
2023/12/30 04:49:01;;;;;;;;;;;;;;;3.45;65.34;99997.88;5095054;28;20325;-80
2023/12/30 04:51:26;;;;;;;;;;;;;;;3.48;65.81;100002.88;5094449;28;19917;-81
2023/12/30 04:53:52;;;;;;;;;;;;;;;3.51;65.38;99997.41;5095441;28;19919;-81
2023/12/30 04:56:17;;;;;;;;;;;;;;;3.51;65.08;99998.22;5094166;28;19912;-81
2023/12/30 04:58:43;;;;;;;;;;;;;;;3.53;64.93;100008.56;5095077;28;19919;-81
2023/12/30 05:01:08;;;;;;;;;;;;;;;3.48;65.27;100003.69;5095322;28;19919;-81
2023/12/30 05:03:34;;;;;;;;;;;;;;;3.46;64.94;100010.81;5096676;28;20010;-81
2023/12/30 05:06:00;;;;;;;;;;;;;;;3.45;65.17;100019.59;5096863;28;19921;-81
2023/12/30 05:08:25;;;;;;;;;;;;;;;3.48;65.12;100021.97;5096068;28;20316;-81
2023/12/30 05:10:50;;;;;;;;;;;;;;;3.50;65.46;100009.63;5097088;28;19920;-81
2023/12/30 05:13:16;;;;;;;;;;;;;;;3.56;65.25;100004.88;5095498;28;19919;-81
2023/12/30 05:15:42;;;;;;;;;;;;;;;3.58;65.49;100019.47;5095789;28;19961;-81
2023/12/30 05:18:07;;;;;;;;;;;;;;;3.61;64.93;100016.59;5095455;28;20354;-81
2023/12/30 05:20:32;;;;;;;;;;;;;;;3.62;64.92;100020.03;5095436;28;19981;-81
2023/12/30 05:23:00;;;;;;;;;;;;;;;3.65;65.37;100023.25;5095736;28;20357;-81
2023/12/30 05:25:26;;;;;;;;;;;;;;;3.63;65.04;100022.53;5097895;28;20026;-81
2023/12/30 05:27:51;;;;;;;;;;;;;;;3.57;64.89;100025.63;5098829;28;19912;-80
2023/12/30 05:30:16;;;;;;;;;;;;;;;3.58;65.53;100021.25;5100386;28;19924;-81
2023/12/30 05:32:42;;;;;;;;;;;;;;;3.60;65.18;100025.38;5100461;28;19912;-81
2023/12/30 05:35:07;;;;;;;;;;;;;;;3.61;65.31;100019.22;5099440;28;19912;-81
2023/12/30 05:37:32;;;;;;;;;;;;;;;3.56;65.13;100012.69;5100029;28;20378;-80
2023/12/30 05:39:58;;;;;;;;;;;;;;;3.52;65.52;100017.34;5100894;28;19912;-81
2023/12/30 05:42:23;;;;;;;;;;;;;;;3.56;66.09;100020.53;5101373;28;19912;-80
2023/12/30 05:44:48;;;;;;;;;;;;;;;3.57;65.79;100016.97;5098446;28;19912;-80
2023/12/30 05:47:13;;;;;;;;;;;;;;;3.59;65.98;100015.91;5098244;28;20005;-79
2023/12/30 05:49:41;;;;;;;;;;;;;;;3.67;65.59;100023.13;5099308;28;19918;-80
2023/12/30 05:52:07;;;;;;;;;;;;;;;3.72;65.54;100023.63;5099697;28;20104;-81
2023/12/30 05:54:33;;;;;;;;;;;;;;;3.72;65.33;100023.63;5100717;28;19920;-81
2023/12/30 05:57:00;;;;;;;;;;;;;;;3.76;65.65;100030.25;5105884;28;19967;-81
2023/12/30 05:59:26;;;;;;;;;;;;;;;3.75;65.20;100024.19;5099182;28;19912;-81
2023/12/30 06:01:51;;;;;;;;;;;;;;;3.77;65.21;100026.69;5100731;28;19912;-79
2023/12/30 06:04:17;;;;;;;;;;;;;;;3.80;64.98;100034.28;5099779;28;19912;-80
2023/12/30 06:06:43;;;;;;;;;;;;;;;3.78;65.52;100023.94;5100376;28;19920;-81
2023/12/30 06:09:08;;;;;;;;;;;;;;;3.72;65.82;100019.22;5103754;28;19912;-81
2023/12/30 06:11:33;;;;;;;;;;;;;;;3.75;65.57;100023.38;5105102;28;20351;-80
2023/12/30 06:13:59;;;;;;;;;;;;;;;3.71;65.90;100027.16;5110077;28;19948;-80
2023/12/30 06:16:24;;;;;;;;;;;;;;;3.70;66.08;100026.31;5111101;28;20009;-81
2023/12/30 06:18:49;;;;;;;;;;;;;;;3.73;65.77;100023.50;5104710;28;20381;-81
2023/12/30 06:21:14;;;;;;;;;;;;;;;3.70;66.19;100026.31;5099366;28;19912;-81
2023/12/30 06:23:40;;;;;;;;;;;;;;;3.71;65.90;100020.13;5100040;28;19912;-81
2023/12/30 06:26:05;;;;;;;;;;;;;;;3.75;65.89;100021.59;5100961;28;19912;-81
2023/12/30 06:28:30;;;;;;;;;;;;;;;3.75;66.23;100018.97;5099445;28;20484;-81
2023/12/30 06:30:56;;;;;;;;;;;;;;;3.73;66.03;100015.66;5098677;28;19924;-80
2023/12/30 06:33:22;;;;;;;;;;;;;;;3.75;66.05;100020.75;5099641;28;20329;-80
2023/12/30 06:35:47;;;;;;;;;;;;;;;3.72;66.04;100013.16;5097750;28;19920;-81
2023/12/30 06:38:14;;;;;;;;;;;;;;;3.77;65.77;100017.06;5099189;28;19919;-80
2023/12/30 06:40:41;;;;;;;;;;;;;;;3.77;65.70;100022.28;5099129;28;20481;-81
2023/12/30 06:43:06;;;;;;;;;;;;;;;3.77;65.88;100017.06;5102929;28;19919;-81
2023/12/30 06:45:32;;;;;;;;;;;;;;;3.81;65.69;100025.50;5098834;28;19912;-81
2023/12/30 06:47:57;;;;;;;;;;;;;;;3.90;65.80;100031.75;5097989;28;19920;-80
2023/12/30 06:50:22;;;;;;;;;;;;;;;3.95;65.58;100032.22;5099323;28;20003;-81
2023/12/30 06:52:48;;;;;;;;;;;;;;;3.95;65.53;100032.22;5098870;28;19912;-80
2023/12/30 06:55:14;;;;;;;;;;;;;;;3.97;65.73;100038.97;5097668;28;19977;-81
2023/12/30 06:57:40;;;;;;;;;;;;;;;4.03;65.57;100035.88;5099280;28;19908;-81
2023/12/30 07:00:07;;;;;;;;;;;;;;;4.17;65.28;100042.59;5102404;28;19937;-81
2023/12/30 07:02:32;;;;;;;;;;;;;;;4.27;65.39;100046.09;5099559;28;19919;-81
2023/12/30 07:04:58;;;;;;;;;;;;;;;4.33;65.30;100042.16;5097096;28;20297;-82
2023/12/30 07:07:23;;;;;;;;;;;;;;;4.41;65.36;100048.41;5096727;28;19920;-81
2023/12/30 07:09:48;;;;;;;;;;;;;;;4.45;65.02;100049.00;5099065;28;19918;-81
2023/12/30 07:12:14;;;;;;;;;;;;;;;4.53;64.81;100051.00;5099500;28;19916;-81
2023/12/30 07:14:39;;;;;;;;;;;;;;;4.58;64.78;100049.66;5102040;28;19912;-80
2023/12/30 07:17:05;;;;;;;;;;;;;;;4.62;64.47;100047.63;5096892;28;19942;-80
2023/12/30 07:19:30;;;;;;;;;;;;;;;4.64;64.71;100041.31;5098775;28;20400;-81
2023/12/30 07:21:56;;;;;;;;;;;;;;;4.72;64.84;100045.91;5097276;28;20385;-81
2023/12/30 07:24:21;;;;;;;;;;;;;;;4.81;64.91;100044.28;5097948;28;19904;-81
2023/12/30 07:26:46;;;;;;;;;;;;;;;4.89;64.61;100040.06;5097822;28;19920;-81
2023/12/30 07:29:13;;;;;;;;;;;;;;;4.95;64.22;100047.41;5099218;28;19936;-81
2023/12/30 07:31:39;;;;;;;;;;;;;;;5.03;64.25;100046.75;5095995;28;20026;-81
2023/12/30 07:34:04;;;;;;;;;;;;;;;5.03;64.26;100044.13;5096160;28;20446;-81
2023/12/30 07:36:30;;;;;;;;;;;;;;;5.09;64.17;100054.09;5094015;28;19912;-81
2023/12/30 07:38:56;;;;;;;;;;;;;;;5.14;64.22;100053.69;5094896;28;19947;-81
2023/12/30 07:41:21;;;;;;;;;;;;;;;5.25;63.95;100059.69;5094333;28;19912;-81
2023/12/30 07:43:47;;;;;;;;;;;;;;;5.39;63.67;100058.50;5094510;28;19967;-81
2023/12/30 07:46:12;;;;;;;;;;;;;;;5.49;63.61;100064.63;5094447;28;19912;-82
2023/12/30 07:48:37;;;;;;;;;;;;;;;5.57;63.71;100067.41;5094137;28;20416;-82
2023/12/30 07:51:03;;;;;;;;;;;;;;;5.66;63.64;100066.59;5092843;28;20377;-82
2023/12/30 07:53:29;;;;;;;;;;;;;;;5.74;63.82;100064.13;5093842;28;20316;-81
2023/12/30 07:55:54;;;;;;;;;;;;;;;5.83;63.38;100064.28;5093227;28;19912;-81
2023/12/30 07:58:19;;;;;;;;;;;;;;;5.91;63.36;100064.47;5093206;28;19919;-82
2023/12/30 08:00:45;;;;;;;;;;;;;;;6.02;63.42;100072.25;5093080;28;19912;-81
2023/12/30 08:03:11;;;;;;;;;;;;;;;6.11;63.54;100067.97;5091880;28;19912;-81
2023/12/30 08:05:36;;;;;;;;;;;;;;;6.20;63.60;100064.53;5092545;28;19935;-81
2023/12/30 08:08:02;;;;;;;;;;;;;;;6.28;63.21;100054.19;5092698;28;20450;-81
2023/12/30 08:10:29;;;;;;;;;;;;;;;6.36;63.23;100065.63;5091218;28;19920;-81
2023/12/30 08:12:54;;;;;;;;;;;;;;;6.41;63.23;100059.16;5091320;28;19969;-82
2023/12/30 08:15:20;;;;;;;;;;;;;;;6.45;63.66;100061.34;5092625;28;20320;-81
2023/12/30 08:17:45;;;;;;;;;;;;;;;6.52;63.02;100069.50;5092368;28;19915;-82
2023/12/30 08:20:10;;;;;;;;;;;;;;;6.60;63.59;100065.22;5091038;28;19920;-84
2023/12/30 08:22:36;;;;;;;;;;;;;;;6.70;63.59;100065.22;5092226;28;20358;-81
2023/12/30 08:25:01;;;;;;;;;;;;;;;6.76;63.49;100059.41;5092506;28;19912;-84
2023/12/30 08:27:26;;;;;;;;;;;;;;;6.85;62.92;100063.81;5090943;28;19920;-83
2023/12/30 08:29:51;;;;;;;;;;;;;;;6.95;62.96;100066.41;5090928;28;20377;-82
2023/12/30 08:32:17;;;;;;;;;;;;;;;7.03;62.85;100063.09;5091067;28;19912;-83
2023/12/30 08:34:42;;;;;;;;;;;;;;;7.11;62.17;100060.56;5090999;28;19912;-84
2023/12/30 08:37:09;;;;;;;;;;;;;;;7.17;62.36;100073.13;5090890;28;19939;-84
2023/12/30 08:39:37;;;;;;;;;;;;;;;7.22;62.35;100069.09;5090839;28;20385;-82
2023/12/30 08:42:04;;;;;;;;;;;;;;;7.28;62.27;100073.78;5090913;28;19954;-82
2023/12/30 08:44:29;;;;;;;;;;;;;;;7.35;61.92;100076.66;5092028;28;19919;-84
2023/12/30 08:46:54;;;;;;;;;;;;;;;7.40;61.66;100077.03;5090678;28;19912;-82
2023/12/30 08:49:20;;;;;;;;;;;;;;;7.46;62.02;100062.53;5091921;28;19927;-83
2023/12/30 08:51:46;;;;;;;;;;;;;;;7.52;61.40;100060.16;5090587;28;19924;-84
2023/12/30 08:54:11;;;;;;;;;;;;;;;7.59;61.99;100066.47;5090634;28;20009;-84
2023/12/30 08:56:37;;;;;;;;;;;;;;;7.65;61.87;100065.06;5091845;28;19912;-82
2023/12/30 08:59:02;;;;;;;;;;;;;;;7.70;61.79;100060.19;5091914;28;20377;-84
2023/12/30 09:01:28;;;;;;;;;;;;;;;7.75;61.70;100060.59;5092439;28;20416;-84
2023/12/30 09:03:54;;;;;;;;;;;;;;;7.80;61.46;100050.44;5095979;28;20385;-82
2023/12/30 09:06:20;;;;;;;;;;;;;;;7.83;61.20;100057.22;5094290;28;19920;-84
2023/12/30 09:08:45;;;;;;;;;;;;;;;7.89;61.37;100051.38;5094582;28;19919;-82
2023/12/30 09:11:19;;;;;;;;;;;;;;;7.94;61.02;100051.75;5094398;28;20459;-85
2023/12/30 09:13:45;;;;;;;;;;;;;;;8.00;60.93;100051.16;5094487;28;19923;-83
2023/12/30 09:16:11;;;;;;;;;;;;;;;8.07;61.21;100041.69;5096373;28;19912;-83
2023/12/30 09:18:36;;;;;;;;;;;;;;;8.14;60.87;100036.66;5094322;28;20053;-82
2023/12/30 09:21:01;;;;;;;;;;;;;;;8.20;60.89;100036.91;5095630;28;20319;-82
2023/12/30 09:23:26;;;;;;;;;;;;;;;8.27;61.10;100035.34;5095735;28;19916;-81
2023/12/30 09:25:52;;;;;;;;;;;;;;;8.33;61.27;100035.69;5095596;28;19942;-82
2023/12/30 09:28:17;;;;;;;;;;;;;;;8.37;61.29;100031.81;5095637;28;19919;-81
2023/12/30 09:30:42;;;;;;;;;;;;;;;8.43;61.01;100028.59;5095434;28;19916;-82
2023/12/30 09:33:07;;;;;;;;;;;;;;;8.47;61.44;100028.13;5095548;28;19995;-83
2023/12/30 09:35:33;;;;;;;;;;;;;;;8.54;61.03;100018.63;5094010;28;19912;-82
2023/12/30 09:37:58;;;;;;;;;;;;;;;8.60;60.81;100015.41;5095951;28;20378;-81
2023/12/30 09:40:23;;;;;;;;;;;;;;;8.65;61.06;100011.47;5095553;28;19997;-81
2023/12/30 09:42:50;;;;;;;;;;;;;;;8.71;60.97;100002.97;5094024;28;19912;-82
2023/12/30 09:45:16;;;;;;;;;;;;;;;8.77;60.72;99999.72;5095264;28;19912;-82
2023/12/30 09:47:42;;;;;;;;;;;;;;;8.84;60.56;100000.75;5095297;28;19919;-82
2023/12/30 09:50:07;;;;;;;;;;;;;;;8.91;60.39;99996.50;5094204;28;19916;-82
2023/12/30 09:52:32;;;;;;;;;;;;;;;8.97;60.12;99992.44;5093762;28;20405;-82
2023/12/30 09:54:58;;;;;;;;;;;;;;;9.09;60.25;99980.66;5093491;28;20440;-82
2023/12/30 09:57:23;;;;;;;;;;;;;;;9.14;59.01;99983.63;5093635;28;19918;-81
2023/12/30 09:59:50;;;;;;;;;;;;;;;9.21;58.99;99979.38;5093707;28;20362;-83
2023/12/30 10:02:15;;;;;;;;;;;;;;;9.29;58.75;99975.97;5093700;28;19916;-82
2023/12/30 10:04:40;;;;;;;;;;;;;;;9.36;58.81;99969.88;5095190;28;20337;-83
2023/12/30 10:07:07;;;;;;;;;;;;;;;9.46;59.27;99967.94;5094683;28;19928;-82
2023/12/30 10:09:32;;;;;;;;;;;;;;;9.55;58.60;99968.78;5093465;28;19918;-82
2023/12/30 10:11:58;;;;;;;;;;;;;;;9.62;58.64;99961.06;5093106;28;20010;-81
2023/12/30 10:14:23;;;;;;;;;;;;;;;9.67;58.46;99956.97;5094534;28;19912;-82
2023/12/30 10:16:48;;;;;;;;;;;;;;;9.72;58.21;99948.59;5093445;28;19963;-82
2023/12/30 10:19:14;;;;;;;;;;;;;;;9.76;58.41;99945.47;5094396;28;20023;-82
2023/12/30 10:21:39;;;;;;;;;;;;;;;9.81;57.82;99950.25;5094386;28;19912;-82
2023/12/30 10:24:05;;;;;;;;;;;;;;;9.88;58.21;99944.16;5094389;28;19916;-82
2023/12/30 10:26:31;;;;;;;;;;;;;;;9.95;57.55;99946.13;5094574;28;19919;-82
2023/12/30 10:28:56;;;;;;;;;;;;;;;10.02;58.01;99941.84;5093087;28;20396;-82
2023/12/30 10:31:23;;;;;;;;;;;;;;;10.07;57.96;99942.19;5094169;28;19916;-81
2023/12/30 10:33:48;;;;;;;;;;;;;;;10.09;58.46;99937.56;5094378;28;19912;-82
2023/12/30 10:36:15;;;;;;;;;;;;;;;10.12;57.88;99934.59;5093126;28;19916;-81
2023/12/30 10:38:41;;;;;;;;;;;;;;;10.14;57.72;99936.06;5094294;28;19909;-82
2023/12/30 10:41:06;;;;;;;;;;;;;;;10.18;58.63;99937.41;5091989;28;19923;-81
2023/12/30 10:43:31;;;;;;;;;;;;;;;10.22;57.43;99937.09;5093997;28;20004;-83
2023/12/30 10:46:01;;;;;;;;;;;;;;;10.25;58.02;99929.66;5094094;28;20433;-82
2023/12/30 10:48:30;;;;;;;;;;;;;;;10.28;57.83;99929.34;5094100;28;19969;-82
2023/12/30 10:50:56;;;;;;;;;;;;;;;10.31;58.20;99921.09;5093859;28;19921;-81
2023/12/30 10:53:34;;;;;;;;;;;;;;;10.35;57.68;99926.84;5088790;28;19934;-82
2023/12/30 10:56:03;;;;;;;;;;;;;;;10.36;57.27;99923.22;5092249;28;20458;-82
2023/12/30 10:58:39;;;;;;;;;;;;;;;10.39;57.69;99925.53;5092464;28;19912;-82
2023/12/30 11:01:05;;;;;;;;;;;;;;;10.43;57.37;99916.31;5093640;28;19990;-82
2023/12/30 11:03:31;;;;;;;;;;;;;;;10.46;57.13;99913.34;5093717;28;20393;-81
2023/12/30 11:06:03;;;;;;;;;;;;;;;10.47;57.61;99907.88;5092232;28;20327;-81
2023/12/30 11:08:29;;;;;;;;;;;;;;;10.51;57.30;99908.38;5093942;28;20406;-83
2023/12/30 11:10:56;;;;;;;;;;;;;;;10.54;57.76;99908.03;5093558;28;20000;-82
2023/12/30 11:13:22;;;;;;;;;;;;;;;10.59;58.32;99899.63;5093497;28;19916;-83
2023/12/30 11:15:47;;;;;;;;;;;;;;;10.59;57.61;99903.06;5092528;28;20013;-81
2023/12/30 11:18:12;;;;;;;;;;;;;;;10.62;58.03;99897.47;5093342;28;19956;-83
2023/12/30 11:20:43;;;;;;;;;;;;;;;10.63;58.36;99885.06;5093456;28;19912;-82
2023/12/30 11:23:10;;;;;;;;;;;;;;;10.64;58.19;99889.38;5093516;28;19916;-81
2023/12/30 11:25:46;;;;;;;;;;;;;;;10.65;58.55;99883.09;5091314;28;19912;-82
2023/12/30 11:28:12;;;;;;;;;;;;;;;10.66;58.00;99877.63;5092440;28;19965;-82
2023/12/30 11:30:37;;;;;;;;;;;;;;;10.67;58.63;99879.28;5093297;28;20316;-81
2023/12/30 11:33:02;;;;;;;;;;;;;;;10.68;59.27;99873.00;5093210;28;19912;-81
2023/12/30 11:35:28;;;;;;;;;;;;;;;10.71;58.97;99869.19;5091886;28;19960;-81
2023/12/30 11:37:56;;;;;;;;;;;;;;;10.74;58.58;99868.84;5093259;28;20019;-81
2023/12/30 11:40:23;;;;;;;;;;;;;;;10.73;58.69;99870.69;5093204;28;20384;-81
2023/12/30 11:42:48;;;;;;;;;;;;;;;10.73;58.98;99872.50;5093047;28;19999;-82
2023/12/30 11:45:14;;;;;;;;;;;;;;;10.74;58.63;99874.97;5091636;28;19996;-82
2023/12/30 11:47:39;;;;;;;;;;;;;;;10.77;58.82;99873.81;5092897;28;20007;-81
2023/12/30 11:50:07;;;;;;;;;;;;;;;10.77;58.89;99877.25;5092805;28;20388;-81
2023/12/30 11:52:32;;;;;;;;;;;;;;;10.79;58.82;99869.16;5093099;28;19912;-82
2023/12/30 11:54:58;;;;;;;;;;;;;;;10.81;59.02;99864.53;5092645;28;19912;-82
2023/12/30 11:57:23;;;;;;;;;;;;;;;10.83;59.44;99855.44;5091325;28;19970;-82
2023/12/30 11:59:49;;;;;;;;;;;;;;;10.84;59.65;99858.91;5092807;28;19912;-82
2023/12/30 12:02:16;;;;;;;;;;;;;;;10.87;59.38;99852.47;5091434;28;20312;-82
2023/12/30 12:04:42;;;;;;;;;;;;;;;10.89;59.11;99855.75;5092614;28;20094;-82
2023/12/30 12:07:07;;;;;;;;;;;;;;;10.91;58.74;99856.41;5090835;28;20379;-81
2023/12/30 12:09:32;;;;;;;;;;;;;;;10.92;58.53;99853.59;5091113;28;20380;-82
2023/12/30 12:11:58;;;;;;;;;;;;;;;10.92;58.83;99850.13;5092515;28;19916;-81
2023/12/30 12:14:24;;;;;;;;;;;;;;;10.92;58.61;99856.22;5092425;28;19912;-82
2023/12/30 12:16:51;;;;;;;;;;;;;;;10.92;58.99;99852.78;5090690;28;20508;-82
2023/12/30 12:19:17;;;;;;;;;;;;;;;10.92;59.06;99847.47;5090989;28;20305;-82
2023/12/30 12:21:42;;;;;;;;;;;;;;;10.92;59.40;99848.31;5092569;28;19998;-82
2023/12/30 12:24:08;;;;;;;;;;;;;;;10.93;58.76;99842.03;5090996;28;19983;-82
2023/12/30 12:26:33;;;;;;;;;;;;;;;10.95;58.95;99837.41;5092283;28;20022;-81
2023/12/30 12:28:58;;;;;;;;;;;;;;;10.96;59.17;99839.03;5092276;28;19947;-82
2023/12/30 12:31:30;;;;;;;;;;;;;;;10.97;59.04;99835.41;5090723;28;19924;-82
2023/12/30 12:33:55;;;;;;;;;;;;;;;10.97;59.52;99837.22;5092106;28;19918;-82
2023/12/30 12:36:21;;;;;;;;;;;;;;;10.97;59.20;99834.59;5090659;28;19912;-82
2023/12/30 12:38:47;;;;;;;;;;;;;;;10.99;59.21;99837.88;5092071;28;19919;-82
2023/12/30 12:41:12;;;;;;;;;;;;;;;10.99;59.01;99828.13;5091921;28;20006;-82